Time;durP1;ratioP1;P1;durP2;ratioP2;P2;SDS_P1;SDS_P2;PMS_P1;PMS_P2;Temp;Humidity;BMP_temperature;BMP_pressure;BME280_temperature;BME280_humidity;BME280_pressure;Samples;Min_cycle;Max_cycle;Signal;HPM_P1;HPM_P2
2023/11/07 00:01:43;;;;;;;3.72;0.80;;;;;;;9.85;100.00;100644.19;5087617;28;20479;-66
2023/11/07 00:04:09;;;;;;;3.30;0.80;;;;;;;9.82;100.00;100644.44;5089182;28;20061;-67
2023/11/07 00:06:34;;;;;;;4.30;0.77;;;;;;;9.81;100.00;100648.81;5083021;28;20065;-66
2023/11/07 00:09:00;;;;;;;3.58;0.75;;;;;;;9.78;100.00;100650.88;5087953;28;20039;-66
2023/11/07 00:11:25;;;;;;;4.38;0.60;;;;;;;9.85;100.00;100650.19;5089542;28;20050;-66
2023/11/07 00:13:50;;;;;;;4.20;0.75;;;;;;;10.01;100.00;100644.44;5089403;28;20032;-66
2023/11/07 00:16:16;;;;;;;1.70;0.40;;;;;;;10.16;100.00;100658.69;5087160;28;20073;-66
2023/11/07 00:18:42;;;;;;;2.70;0.30;;;;;;;10.23;100.00;100654.63;5090942;28;21269;-66
2023/11/07 00:21:07;;;;;;;5.65;0.75;;;;;;;10.27;100.00;100653.38;5092044;28;20192;-67
2023/11/07 00:23:33;;;;;;;2.08;0.60;;;;;;;10.26;100.00;100648.31;5084093;28;20043;-66
2023/11/07 00:25:58;;;;;;;5.05;0.90;;;;;;;10.22;100.00;100652.97;5083551;28;20515;-66
2023/11/07 00:28:25;;;;;;;3.53;0.63;;;;;;;10.18;100.00;100648.16;5081320;28;20046;-66
2023/11/07 00:30:54;;;;;;;1.90;0.45;;;;;;;10.16;100.00;100650.88;5083751;28;20036;-66
2023/11/07 00:33:19;;;;;;;3.10;0.40;;;;;;;10.16;100.00;100643.06;5087579;28;20128;-66
2023/11/07 00:35:45;;;;;;;2.45;0.45;;;;;;;10.18;100.00;100654.19;5086369;28;20032;-67
2023/11/07 00:38:10;;;;;;;1.30;0.28;;;;;;;10.19;100.00;100650.66;5086305;28;20040;-66
2023/11/07 00:40:36;;;;;;;2.50;0.40;;;;;;;10.23;100.00;100652.03;5085869;28;20035;-67
2023/11/07 00:43:01;;;;;;;1.33;0.22;;;;;;;10.23;100.00;100652.03;5084837;28;20036;-66
2023/11/07 00:45:27;;;;;;;4.18;0.20;;;;;;;10.25;100.00;100657.91;5086665;28;20043;-66
2023/11/07 00:47:52;;;;;;;2.90;0.30;;;;;;;10.24;100.00;100656.28;5084493;28;20028;-66
2023/11/07 00:50:18;;;;;;;1.33;0.28;;;;;;;10.23;100.00;100656.41;5087885;28;20642;-66
2023/11/07 00:52:43;;;;;;;4.03;0.30;;;;;;;10.25;100.00;100663.13;5085098;28;20375;-66
2023/11/07 00:55:09;;;;;;;0.82;0.20;;;;;;;10.24;100.00;100656.28;5082566;28;20016;-65
2023/11/07 00:57:35;;;;;;;3.15;0.30;;;;;;;10.27;100.00;100668.19;5085452;28;20031;-66
2023/11/07 01:00:00;;;;;;;1.70;0.30;;;;;;;10.29;100.00;100671.47;5086090;28;20020;-65
2023/11/07 01:02:26;;;;;;;2.35;0.45;;;;;;;10.29;100.00;100668.88;5088679;28;20035;-65
2023/11/07 01:04:52;;;;;;;2.13;0.30;;;;;;;10.26;100.00;100680.41;5086558;28;20032;-65
2023/11/07 01:07:18;;;;;;;3.28;0.47;;;;;;;10.24;100.00;100671.06;5084425;28;20036;-65
2023/11/07 01:09:43;;;;;;;2.17;0.40;;;;;;;10.22;100.00;100678.19;5086213;28;20032;-65
2023/11/07 01:12:09;;;;;;;7.32;0.77;;;;;;;10.23;100.00;100672.03;5087453;28;20024;-65
2023/11/07 01:14:35;;;;;;;2.20;0.50;;;;;;;10.23;100.00;100678.06;5086429;28;20035;-65
2023/11/07 01:17:00;;;;;;;5.20;0.20;;;;;;;10.20;100.00;100675.72;5081287;28;20048;-65
2023/11/07 01:19:27;;;;;;;5.25;0.30;;;;;;;10.21;100.00;100673.94;5085237;28;20491;-65
2023/11/07 01:21:53;;;;;;;2.17;0.35;;;;;;;10.20;100.00;100670.53;5087141;28;20044;-65
2023/11/07 01:24:18;;;;;;;3.33;0.43;;;;;;;10.17;100.00;100673.38;5086584;28;20066;-65
2023/11/07 01:26:44;;;;;;;4.78;0.30;;;;;;;10.16;100.00;100669.13;5080616;28;20032;-66
2023/11/07 01:29:09;;;;;;;1.27;0.10;;;;;;;10.07;100.00;100675.13;5083822;28;20085;-65
2023/11/07 01:31:35;;;;;;;2.95;0.38;;;;;;;9.85;100.00;100676.22;5083137;28;20403;-65
2023/11/07 01:34:00;;;;;;;3.45;0.40;;;;;;;9.79;100.00;100675.94;5083301;28;20020;-65
2023/11/07 01:36:26;;;;;;;1.38;0.30;;;;;;;9.78;100.00;100677.72;5086755;28;20028;-66
2023/11/07 01:38:51;;;;;;;1.08;0.30;;;;;;;9.72;100.00;100680.03;5085251;28;20024;-66
2023/11/07 01:41:17;;;;;;;1.40;0.30;;;;;;;9.66;100.00;100670.97;5083105;28;20035;-66
2023/11/07 01:43:42;;;;;;;1.30;0.40;;;;;;;9.58;100.00;100663.84;5084661;28;20056;-66
2023/11/07 01:46:09;;;;;;;5.47;0.52;;;;;;;9.46;100.00;100664.88;5086501;28;20081;-65
2023/11/07 01:48:35;;;;;;;4.30;0.52;;;;;;;9.46;100.00;100662.28;5083954;28;20043;-66
2023/11/07 01:51:02;;;;;;;2.55;0.47;;;;;;;9.51;100.00;100674.91;5086381;28;20039;-66
2023/11/07 01:53:28;;;;;;;6.78;0.30;;;;;;;9.46;100.00;100662.28;5087753;28;20460;-66
2023/11/07 01:55:56;;;;;;;3.65;0.35;;;;;;;9.58;100.00;100658.63;5088313;28;20028;-65
2023/11/07 01:58:21;;;;;;;1.15;0.40;;;;;;;9.72;100.00;100659.22;5091287;28;20081;-65
2023/11/07 02:00:49;;;;;;;2.08;0.30;;;;;;;9.85;100.00;100649.38;5091691;28;20031;-66
2023/11/07 02:03:14;;;;;;;2.03;0.30;;;;;;;9.96;100.00;100651.84;5093163;28;20028;-65
2023/11/07 02:05:43;;;;;;;2.70;0.25;;;;;;;10.01;100.00;100641.84;5092014;28;20044;-66
2023/11/07 02:08:09;;;;;;;4.18;0.30;;;;;;;10.00;100.00;100648.00;5090737;28;20028;-65
2023/11/07 02:10:35;;;;;;;1.65;0.20;;;;;;;10.00;100.00;100645.41;5089653;28;20073;-65
2023/11/07 02:13:01;;;;;;;1.48;0.20;;;;;;;10.01;100.00;100649.66;5092514;28;20047;-65
2023/11/07 02:15:27;;;;;;;5.78;0.30;;;;;;;10.04;100.00;100658.97;5090979;28;20036;-65
2023/11/07 02:17:53;;;;;;;6.30;0.32;;;;;;;10.05;100.00;100660.59;5093675;28;20133;-66
2023/11/07 02:20:19;;;;;;;2.50;0.25;;;;;;;10.04;100.00;100654.59;5093116;28;21393;-65
2023/11/07 02:22:47;;;;;;;1.20;0.20;;;;;;;10.00;100.00;100658.41;5090217;28;20028;-65
2023/11/07 02:25:16;;;;;;;1.35;0.20;;;;;;;9.94;100.00;100654.56;5090505;28;20039;-66
2023/11/07 02:27:42;;;;;;;1.80;0.30;;;;;;;9.92;100.00;100646.06;5091039;28;20028;-65
2023/11/07 02:30:12;;;;;;;2.03;0.20;;;;;;;9.94;100.00;100653.75;5091476;28;20483;-65
2023/11/07 02:32:41;;;;;;;1.92;0.30;;;;;;;9.78;100.00;100653.47;5086377;28;20044;-66
2023/11/07 02:35:08;;;;;;;1.33;0.28;;;;;;;9.45;100.00;100660.63;5089059;28;20103;-65
2023/11/07 02:37:34;;;;;;;3.25;0.30;;;;;;;9.31;100.00;100655.81;5089106;28;20039;-65
2023/11/07 02:40:00;;;;;;;4.95;0.30;;;;;;;9.20;100.00;100658.50;5087841;28;20031;-65
2023/11/07 02:42:28;;;;;;;1.33;0.40;;;;;;;9.18;100.00;100655.22;5089658;28;20131;-65
2023/11/07 02:44:54;;;;;;;0.80;0.30;;;;;;;9.23;100.00;100647.84;5090255;28;20498;-65
2023/11/07 02:47:20;;;;;;;1.55;0.28;;;;;;;9.13;100.00;100645.22;5086788;28;20127;-65
2023/11/07 02:49:45;;;;;;;0.57;0.20;;;;;;;9.17;100.00;100643.19;5087882;28;20126;-65
2023/11/07 02:52:11;;;;;;;1.67;0.30;;;;;;;9.23;100.00;100640.06;5088221;28;20051;-65
2023/11/07 02:54:36;;;;;;;4.38;0.30;;;;;;;9.24;100.00;100633.91;5088853;28;20424;-65
2023/11/07 02:57:02;;;;;;;1.60;0.20;;;;;;;9.18;100.00;100634.44;5088953;28;20042;-65
2023/11/07 02:59:27;;;;;;;1.85;0.30;;;;;;;9.28;100.00;100635.28;5090717;28;20043;-65
2023/11/07 03:01:53;;;;;;;1.33;0.20;;;;;;;9.40;100.00;100636.84;5087826;28;20028;-66
2023/11/07 03:04:19;;;;;;;5.78;0.70;;;;;;;9.48;100.00;100636.97;5086856;28;20031;-65
2023/11/07 03:06:44;;;;;;;2.38;0.20;;;;;;;9.55;100.00;100640.69;5091819;28;20059;-65
2023/11/07 03:09:10;;;;;;;2.63;0.30;;;;;;;9.61;100.00;100637.56;5087488;28;20051;-65
2023/11/07 03:11:36;;;;;;;4.15;0.20;;;;;;;9.64;100.00;100639.06;5087798;28;20089;-66
2023/11/07 03:14:01;;;;;;;3.90;0.40;;;;;;;9.69;100.00;100633.47;5090433;28;20047;-65
2023/11/07 03:16:27;;;;;;;2.05;0.50;;;;;;;9.67;100.00;100636.19;5090113;28;20396;-66
2023/11/07 03:18:52;;;;;;;2.30;0.28;;;;;;;9.68;100.00;100637.84;5089152;28;20024;-66
2023/11/07 03:21:19;;;;;;;2.92;0.22;;;;;;;9.71;100.00;100636.75;5088573;28;20052;-65
2023/11/07 03:23:45;;;;;;;2.33;0.20;;;;;;;9.71;100.00;100642.78;5086004;28;20047;-66
2023/11/07 03:26:10;;;;;;;2.28;0.30;;;;;;;9.73;100.00;100646.06;5093350;28;20043;-66
2023/11/07 03:28:36;;;;;;;3.38;0.10;;;;;;;9.69;100.00;100643.88;5088898;28;20078;-65
2023/11/07 03:31:02;;;;;;;1.55;0.20;;;;;;;9.65;100.00;100648.50;5093922;28;20032;-67
2023/11/07 03:33:27;;;;;;;6.05;0.30;;;;;;;9.63;100.00;100634.81;5086388;28;20028;-66
2023/11/07 03:35:53;;;;;;;0.70;0.10;;;;;;;9.62;100.00;100640.97;5088182;28;20033;-66
2023/11/07 03:38:19;;;;;;;2.53;0.32;;;;;;;9.60;100.00;100635.91;5088481;28;20028;-66
2023/11/07 03:40:45;;;;;;;4.63;0.30;;;;;;;9.57;100.00;100636.16;5087591;28;20783;-66
2023/11/07 03:43:11;;;;;;;5.45;0.40;;;;;;;9.58;100.00;100637.00;5087721;28;20069;-66
2023/11/07 03:45:37;;;;;;;2.20;0.17;;;;;;;9.57;100.00;100630.97;5089457;28;20065;-66
2023/11/07 03:48:04;;;;;;;1.83;0.28;;;;;;;9.56;100.00;100638.91;5087091;28;20062;-66
2023/11/07 03:50:30;;;;;;;1.48;0.28;;;;;;;9.57;100.00;100635.34;5088802;28;20570;-66
2023/11/07 03:52:56;;;;;;;2.47;0.22;;;;;;;9.59;100.00;100638.66;5091565;28;20106;-66
2023/11/07 03:55:22;;;;;;;4.60;0.17;;;;;;;9.63;100.00;100637.41;5095424;28;20024;-66
2023/11/07 03:57:47;;;;;;;1.80;0.20;;;;;;;9.65;100.00;100648.50;5096613;28;20540;-66
2023/11/07 04:00:13;;;;;;;2.13;0.20;;;;;;;9.69;100.00;100641.28;5094542;28;20120;-66
2023/11/07 04:02:39;;;;;;;2.28;0.20;;;;;;;9.69;100.00;100641.28;5091311;28;20531;-66
2023/11/07 04:05:05;;;;;;;0.85;0.30;;;;;;;9.71;100.00;100647.16;5090225;28;20032;-65
2023/11/07 04:07:31;;;;;;;1.90;0.20;;;;;;;9.70;100.00;100642.91;5089533;28;20032;-66
2023/11/07 04:09:57;;;;;;;1.10;0.20;;;;;;;9.68;100.00;100637.84;5088931;28;20066;-67
2023/11/07 04:12:23;;;;;;;1.08;0.20;;;;;;;9.67;100.00;100631.00;5084110;28;20118;-66
2023/11/07 04:14:49;;;;;;;2.63;0.30;;;;;;;9.65;100.00;100638.94;5091755;28;20380;-66
2023/11/07 04:17:15;;;;;;;2.40;0.20;;;;;;;9.64;100.00;100634.69;5089966;28;20436;-66
2023/11/07 04:19:41;;;;;;;1.35;0.30;;;;;;;9.60;100.00;100624.69;5086876;28;20133;-66
2023/11/07 04:22:07;;;;;;;2.00;0.17;;;;;;;9.56;100.00;100623.31;5086778;28;20486;-67
2023/11/07 04:24:37;;;;;;;1.83;0.30;;;;;;;9.56;100.00;100628.50;5083334;28;20104;-66
2023/11/07 04:27:07;;;;;;;3.85;0.20;;;;;;;9.55;100.00;100630.28;5087371;28;20059;-66
2023/11/07 04:29:33;;;;;;;0.70;0.30;;;;;;;9.53;100.00;100634.78;5087673;28;20035;-66
2023/11/07 04:32:01;;;;;;;1.95;0.30;;;;;;;9.56;100.00;100639.72;5085353;28;20403;-66
2023/11/07 04:34:27;;;;;;;1.45;0.22;;;;;;;9.55;100.00;100635.47;5086638;28;20035;-65
2023/11/07 04:36:54;;;;;;;1.67;0.20;;;;;;;9.55;100.00;100639.88;5086006;28;20020;-66
2023/11/07 04:39:20;;;;;;;3.30;0.20;;;;;;;9.56;100.00;100631.94;5088012;28;20128;-66
2023/11/07 04:41:45;;;;;;;1.40;0.13;;;;;;;9.56;100.00;100633.72;5084219;28;20194;-66
2023/11/07 04:44:11;;;;;;;2.22;0.20;;;;;;;9.55;100.00;100638.09;5086974;28;20054;-66
2023/11/07 04:46:38;;;;;;;1.20;0.10;;;;;;;9.54;100.00;100636.44;5087806;28;20027;-66
2023/11/07 04:49:06;;;;;;;0.30;0.10;;;;;;;9.56;100.00;100641.50;5085466;28;20487;-66
2023/11/07 04:51:32;;;;;;;4.13;0.30;;;;;;;9.57;100.00;100641.38;5088011;28;20036;-66
2023/11/07 04:53:57;;;;;;;0.75;0.17;;;;;;;9.55;100.00;100645.88;5087078;28;20441;-66
2023/11/07 04:56:23;;;;;;;4.53;0.20;;;;;;;9.56;100.00;100644.09;5084925;28;20024;-65
2023/11/07 04:58:49;;;;;;;3.78;0.20;;;;;;;9.52;100.00;100651.34;5087199;28;20134;-66
2023/11/07 05:01:15;;;;;;;0.80;0.20;;;;;;;9.50;100.00;100655.03;5084146;28;20027;-66
2023/11/07 05:03:41;;;;;;;0.88;0.20;;;;;;;9.50;100.00;100655.88;5085780;28;20035;-67
2023/11/07 05:06:07;;;;;;;3.60;0.30;;;;;;;9.56;100.00;100657.13;5086376;28;20032;-66
2023/11/07 05:08:33;;;;;;;2.33;0.20;;;;;;;9.63;100.00;100660.84;5088041;28;20039;-66
2023/11/07 05:10:58;;;;;;;1.15;0.20;;;;;;;9.58;100.00;100661.22;5087385;28;20027;-65
2023/11/07 05:13:24;;;;;;;1.00;0.28;;;;;;;9.54;100.00;100661.63;5085447;28;20032;-66
2023/11/07 05:15:49;;;;;;;1.73;0.30;;;;;;;9.53;100.00;100659.97;5085353;28;20031;-66
2023/11/07 05:18:15;;;;;;;0.70;0.20;;;;;;;9.53;100.00;100663.41;5086358;28;20028;-66
2023/11/07 05:20:42;;;;;;;4.00;0.65;;;;;;;9.49;100.00;100663.81;5082327;28;20102;-66
2023/11/07 05:23:08;;;;;;;1.15;0.20;;;;;;;9.48;100.00;100662.97;5086579;28;20458;-66
2023/11/07 05:25:35;;;;;;;0.73;0.13;;;;;;;9.51;100.00;100665.31;5083688;28;20040;-66
2023/11/07 05:28:02;;;;;;;1.92;0.20;;;;;;;9.52;100.00;100661.75;5082529;28;20055;-66
2023/11/07 05:30:27;;;;;;;1.45;0.25;;;;;;;9.56;100.00;100670.94;5085599;28;20036;-65
2023/11/07 05:32:53;;;;;;;1.48;0.20;;;;;;;9.52;100.00;100674.75;5087602;28;21211;-66
2023/11/07 05:35:18;;;;;;;2.53;0.25;;;;;;;9.57;100.00;100674.38;5089494;28;20027;-65
2023/11/07 05:37:45;;;;;;;4.25;0.20;;;;;;;9.56;100.00;100675.31;5089028;28;20624;-66
2023/11/07 05:40:13;;;;;;;2.33;0.17;;;;;;;9.55;100.00;100674.50;5090229;28;20032;-65
2023/11/07 05:42:40;;;;;;;2.33;0.20;;;;;;;9.52;100.00;100674.75;5089766;28;20050;-66
2023/11/07 05:45:07;;;;;;;2.40;0.20;;;;;;;9.49;100.00;100677.63;5087646;28;20842;-66
2023/11/07 05:47:33;;;;;;;1.25;0.20;;;;;;;9.45;100.00;100673.66;5088288;28;20039;-66
2023/11/07 05:49:59;;;;;;;2.47;0.20;;;;;;;9.40;100.00;100675.03;5089721;28;20032;-66
2023/11/07 05:52:24;;;;;;;1.23;0.20;;;;;;;9.32;100.00;100678.28;5090465;28;20043;-66
2023/11/07 05:54:50;;;;;;;2.00;0.20;;;;;;;9.29;100.00;100687.16;5094111;28;20034;-66
2023/11/07 05:57:15;;;;;;;0.70;0.20;;;;;;;9.29;100.00;100686.34;5094781;28;20026;-66
2023/11/07 05:59:41;;;;;;;3.55;0.30;;;;;;;9.26;100.00;100700.41;5097527;28;20475;-66
2023/11/07 06:02:08;;;;;;;1.40;0.32;;;;;;;9.26;100.00;100697.00;5094368;28;20032;-66
2023/11/07 06:04:36;;;;;;;1.33;0.20;;;;;;;9.25;100.00;100701.38;5094490;28;20044;-66
2023/11/07 06:07:02;;;;;;;4.45;0.75;;;;;;;9.25;100.00;100696.16;5084907;28;20024;-66
2023/11/07 06:09:28;;;;;;;2.30;0.20;;;;;;;9.25;100.00;100698.78;5087751;28;20040;-66
2023/11/07 06:11:55;;;;;;;0.55;0.20;;;;;;;9.24;100.00;100698.91;5089619;28;20028;-66
2023/11/07 06:14:21;;;;;;;1.30;0.25;;;;;;;9.27;100.00;100702.06;5088839;28;20040;-66
2023/11/07 06:16:46;;;;;;;1.70;0.20;;;;;;;9.31;100.00;100710.44;5090214;28;20111;-66
2023/11/07 06:19:12;;;;;;;4.13;0.30;;;;;;;9.36;100.00;100718.66;5090317;28;20031;-66
2023/11/07 06:21:38;;;;;;;3.80;0.40;;;;;;;9.43;100.00;100721.56;5087603;28;20769;-65
2023/11/07 06:24:03;;;;;;;4.90;0.38;;;;;;;9.45;100.00;100727.47;5090557;28;20031;-65
2023/11/07 06:26:29;;;;;;;1.92;0.30;;;;;;;9.49;100.00;100721.84;5089679;28;20024;-65
2023/11/07 06:28:55;;;;;;;8.38;0.60;;;;;;;9.51;100.00;100725.13;5090958;28;20479;-67
2023/11/07 06:31:27;;;;;;;0.88;0.30;;;;;;;9.53;100.00;100720.63;5088262;28;20054;-66
2023/11/07 06:33:53;;;;;;;2.38;0.10;;;;;;;9.57;100.00;100724.63;5090910;28;20024;-65
2023/11/07 06:36:19;;;;;;;1.65;0.30;;;;;;;9.61;100.00;100720.78;5093106;28;20028;-65
2023/11/07 06:38:45;;;;;;;1.60;0.30;;;;;;;9.69;100.00;100719.31;5087899;28;20127;-65
2023/11/07 06:41:11;;;;;;;1.52;0.10;;;;;;;9.75;100.00;100713.59;5092151;28;20039;-66
2023/11/07 06:43:38;;;;;;;1.42;0.20;;;;;;;9.82;100.00;100718.13;5087383;28;20032;-65
2023/11/07 06:46:04;;;;;;;1.48;0.20;;;;;;;9.87;100.00;100720.34;5087155;28;20169;-66
2023/11/07 06:48:29;;;;;;;2.80;0.30;;;;;;;9.91;100.00;100724.31;5086608;28;20107;-66
2023/11/07 06:50:57;;;;;;;5.50;0.25;;;;;;;9.96;100.00;100724.72;5090262;28;20294;-66
2023/11/07 06:53:22;;;;;;;0.40;0.10;;;;;;;9.98;100.00;100730.59;5087678;28;20047;-66
2023/11/07 06:55:47;;;;;;;1.83;0.17;;;;;;;9.98;100.00;100723.63;5087437;28;20031;-66
2023/11/07 06:58:13;;;;;;;2.20;0.13;;;;;;;10.02;100.00;100731.16;5088582;28;20034;-68
2023/11/07 07:00:38;;;;;;;1.48;0.13;;;;;;;10.03;100.00;100732.81;5088993;28;20035;-65
2023/11/07 07:03:05;;;;;;;0.45;0.20;;;;;;;10.05;100.00;100736.94;5088553;28;20480;-66
2023/11/07 07:05:30;;;;;;;4.07;0.38;;;;;;;10.07;100.00;100742.81;5086684;28;20026;-65
2023/11/07 07:07:56;;;;;;;2.05;0.40;;;;;;;10.12;100.00;100745.84;5088548;28;20036;-65
2023/11/07 07:10:22;;;;;;;3.00;0.17;;;;;;;10.17;100.00;100748.88;5095407;28;20069;-65
2023/11/07 07:12:47;;;;;;;2.50;0.13;;;;;;;10.20;100.00;100751.25;5088788;28;20073;-66
2023/11/07 07:15:13;;;;;;;0.70;0.10;;;;;;;10.23;100.00;100748.38;5086416;28;20016;-65
2023/11/07 07:17:38;;;;;;;0.38;0.10;;;;;;;10.26;100.00;100753.31;5086572;28;20035;-65
2023/11/07 07:20:11;;;;;;;2.47;0.20;;;;;;;10.24;100.00;100755.22;5086839;28;20048;-65
2023/11/07 07:22:39;;;;;;;0.70;0.10;;;;;;;10.19;100.00;100753.94;5089062;28;20070;-65
2023/11/07 07:25:05;;;;;;;2.25;0.30;;;;;;;10.18;100.00;100754.91;5085582;28;20063;-65
2023/11/07 07:27:33;;;;;;;1.48;0.10;;;;;;;10.21;100.00;100755.50;5087622;28;20466;-65
2023/11/07 07:29:59;;;;;;;2.05;0.20;;;;;;;10.19;100.00;100752.19;5086240;28;20024;-65
2023/11/07 07:32:26;;;;;;;0.95;0.20;;;;;;;10.26;100.00;100762.91;5090084;28;20035;-65
2023/11/07 07:34:52;;;;;;;1.98;0.50;;;;;;;10.31;100.00;100763.31;5080957;28;20032;-66
2023/11/07 07:37:20;;;;;;;1.60;0.20;;;;;;;10.44;100.00;100756.03;5087878;28;20027;-65
2023/11/07 07:39:46;;;;;;;4.85;0.60;;;;;;;10.63;100.00;100768.25;5087424;28;20059;-66
2023/11/07 07:42:12;;;;;;;1.08;0.25;;;;;;;10.72;100.00;100764.84;5085437;28;20032;-65
2023/11/07 07:44:40;;;;;;;0.82;0.20;;;;;;;10.70;100.00;100764.16;5085765;28;20384;-65
2023/11/07 07:47:07;;;;;;;0.82;0.20;;;;;;;10.74;100.00;100762.09;5086317;28;20031;-65
2023/11/07 07:49:33;;;;;;;0.30;0.10;;;;;;;10.80;100.00;100764.97;5084902;28;20409;-65
2023/11/07 07:51:59;;;;;;;1.63;0.17;;;;;;;10.94;100.00;100769.72;5082588;28;20028;-66
2023/11/07 07:54:25;;;;;;;1.00;0.20;;;;;;;11.01;100.00;100767.41;5086562;28;20372;-65
2023/11/07 07:56:54;;;;;;;0.40;0.10;;;;;;;11.03;100.00;100772.47;5084776;28;20024;-66
2023/11/07 07:59:23;;;;;;;0.30;0.10;;;;;;;11.04;100.00;100774.94;5085480;28;20121;-66
2023/11/07 08:01:55;;;;;;;1.15;0.20;;;;;;;11.06;100.00;100777.41;5083573;28;20032;-66
2023/11/07 08:04:26;;;;;;;0.60;0.10;;;;;;;11.09;100.00;100777.13;5089658;28;20031;-66
2023/11/07 08:06:52;;;;;;;1.73;0.20;;;;;;;11.15;100.00;100773.97;5081444;28;20036;-65
2023/11/07 08:09:22;;;;;;;2.00;0.10;;;;;;;11.19;100.00;100772.72;5087360;28;20043;-67
2023/11/07 08:11:50;;;;;;;1.80;0.20;;;;;;;11.29;100.00;100769.13;5085428;28;20395;-66
2023/11/07 08:14:16;;;;;;;0.57;0.10;;;;;;;11.37;100.00;100764.97;5085827;28;20054;-66
2023/11/07 08:16:42;;;;;;;0.45;0.10;;;;;;;11.41;100.00;100769.75;5083147;28;20047;-66
2023/11/07 08:19:12;;;;;;;0.45;0.10;;;;;;;11.46;100.00;100771.94;5085830;28;20103;-66
2023/11/07 08:21:40;;;;;;;1.65;0.20;;;;;;;11.55;100.00;100773.69;5084344;28;20602;-66
2023/11/07 08:24:07;;;;;;;3.25;0.20;;;;;;;11.68;100.00;100771.59;5088192;28;20056;-65
2023/11/07 08:26:35;;;;;;;1.05;0.20;;;;;;;11.85;100.00;100777.84;5084401;28;20127;-66
2023/11/07 08:29:08;;;;;;;0.85;0.10;;;;;;;11.98;100.00;100765.28;5089372;28;20054;-66
2023/11/07 08:31:34;;;;;;;1.90;0.40;;;;;;;12.20;100.00;100758.81;5085054;28;20051;-66
2023/11/07 08:34:00;;;;;;;3.20;0.20;;;;;;;12.24;100.00;100763.63;5085987;28;20576;-66
2023/11/07 08:36:26;;;;;;;3.33;0.35;;;;;;;12.33;100.00;100758.44;5082884;28;20044;-66
2023/11/07 08:38:52;;;;;;;8.40;0.68;;;;;;;12.38;100.00;100761.44;5091459;28;20023;-66
2023/11/07 08:41:17;;;;;;;2.10;0.20;;;;;;;12.36;100.00;100755.53;5086473;28;21054;-66
2023/11/07 08:43:42;;;;;;;2.55;0.10;;;;;;;12.33;100.00;100751.44;5084008;28;20074;-66
2023/11/07 08:46:08;;;;;;;3.35;0.38;;;;;;;12.32;100.00;100751.56;5088298;28;20035;-66
2023/11/07 08:48:34;;;;;;;0.45;0.10;;;;;;;12.28;100.00;100754.50;5084974;28;20032;-65
2023/11/07 08:51:01;;;;;;;0.77;0.10;;;;;;;12.30;100.00;100763.00;5084867;28;20040;-67
2023/11/07 08:53:26;;;;;;;0.75;0.10;;;;;;;12.38;100.00;100756.22;5084631;28;20495;-63
2023/11/07 08:55:52;;;;;;;2.78;0.10;;;;;;;12.48;100.00;100751.72;5080330;28;20036;-63
2023/11/07 08:58:18;;;;;;;0.52;0.00;;;;;;;12.47;100.00;100755.31;5087180;28;20081;-62
2023/11/07 09:00:44;;;;;;;1.52;0.10;;;;;;;12.46;100.00;100753.66;5086658;28;20461;-62
2023/11/07 09:03:10;;;;;;;0.70;0.15;;;;;;;12.51;100.00;100767.13;5083397;28;20038;-61
2023/11/07 09:05:35;;;;;;;0.70;0.20;;;;;;;12.58;100.00;100762.94;5082548;28;20117;-62
2023/11/07 09:08:04;;;;;;;0.30;0.10;;;;;;;12.62;100.00;100764.28;5085690;28;20032;-62
2023/11/07 09:10:31;;;;;;;0.65;0.20;;;;;;;12.70;100.00;100766.97;5085059;28;20088;-62
2023/11/07 09:12:57;;;;;;;0.73;0.10;;;;;;;12.80;100.00;100761.63;5079937;28;20032;-62
2023/11/07 09:15:25;;;;;;;4.30;0.13;;;;;;;12.85;99.98;100764.63;5086117;28;20090;-63
2023/11/07 09:17:51;;;;;;;0.90;0.20;;;;;;;12.84;100.00;100763.78;5083262;28;20028;-63
2023/11/07 09:20:18;;;;;;;0.98;0.20;;;;;;;12.86;99.94;100769.69;5084456;28;20434;-62
2023/11/07 09:22:46;;;;;;;0.52;0.22;;;;;;;12.90;98.44;100772.81;5085300;28;20036;-63
2023/11/07 09:25:12;;;;;;;3.67;0.17;;;;;;;12.96;97.54;100773.03;5082424;28;20028;-63
2023/11/07 09:27:38;;;;;;;5.65;0.10;;;;;;;12.94;97.48;100764.53;5084982;28;20036;-62
2023/11/07 09:30:11;;;;;;;1.05;0.10;;;;;;;12.94;97.87;100769.75;5084771;28;20454;-63
2023/11/07 09:32:41;;;;;;;1.40;0.20;;;;;;;13.00;99.96;100762.28;5083861;28;20043;-63
2023/11/07 09:35:08;;;;;;;2.40;0.20;;;;;;;13.06;99.27;100756.44;5082790;28;20039;-62
2023/11/07 09:37:39;;;;;;;4.75;0.13;;;;;;;13.12;98.38;100756.66;5085090;28;20032;-62
2023/11/07 09:40:12;;;;;;;1.98;0.20;;;;;;;13.19;99.48;100754.28;5086184;28;20077;-62
2023/11/07 09:42:40;;;;;;;1.23;0.10;;;;;;;13.23;99.29;100753.00;5086667;28;20046;-66
2023/11/07 09:45:14;;;;;;;0.85;0.10;;;;;;;13.40;98.89;100754.69;5088461;28;20371;-66
2023/11/07 09:47:40;;;;;;;1.52;0.20;;;;;;;13.35;99.59;100754.34;5087143;28;20063;-66
2023/11/07 09:50:07;;;;;;;0.43;0.10;;;;;;;13.34;99.68;100747.47;5088366;28;20527;-66
2023/11/07 09:52:33;;;;;;;2.42;0.20;;;;;;;13.36;99.34;100747.31;5086241;28;20032;-66
2023/11/07 09:55:06;;;;;;;1.65;0.20;;;;;;;13.40;98.59;100748.66;5088416;28;20489;-66
2023/11/07 09:57:35;;;;;;;1.73;0.28;;;;;;;13.46;98.64;100746.22;5087300;28;20043;-65
2023/11/07 10:00:02;;;;;;;4.35;0.20;;;;;;;13.52;100.00;100747.41;5088585;28;20043;-66
2023/11/07 10:02:27;;;;;;;0.73;0.10;;;;;;;13.60;100.00;100745.66;5086695;28;20036;-63
2023/11/07 10:04:55;;;;;;;1.25;0.20;;;;;;;13.70;100.00;100744.72;5087174;28;20104;-63
2023/11/07 10:07:21;;;;;;;0.52;0.10;;;;;;;13.79;100.00;100744.56;5083301;28;20402;-64
2023/11/07 10:09:47;;;;;;;2.25;0.20;;;;;;;13.80;100.00;100740.13;5086164;28;20028;-63
2023/11/07 10:12:18;;;;;;;1.30;0.10;;;;;;;13.84;100.00;100738.84;5091993;28;20498;-64
2023/11/07 10:14:43;;;;;;;0.57;0.10;;;;;;;14.05;100.00;100733.19;5086446;28;20056;-64
2023/11/07 10:17:20;;;;;;;5.88;0.47;;;;;;;14.21;100.00;100731.38;5090444;28;20063;-64
2023/11/07 10:19:46;;;;;;;1.85;0.30;;;;;;;14.31;100.00;100726.00;5087106;28;20410;-63
2023/11/07 10:22:12;;;;;;;0.20;0.00;;;;;;;14.48;100.00;100729.50;5088523;28;20028;-64
2023/11/07 10:24:45;;;;;;;4.63;0.10;;;;;;;14.54;100.00;100740.16;5090075;28;20143;-64
2023/11/07 10:27:11;;;;;;;2.38;0.10;;;;;;;14.55;100.00;100730.50;5090641;28;20040;-66
2023/11/07 10:29:51;;;;;;;3.30;0.10;;;;;;;14.47;100.00;100722.63;5091046;28;20119;-66
2023/11/07 10:32:17;;;;;;;1.92;0.10;;;;;;;14.46;100.00;100713.94;5087228;28;20028;-66
2023/11/07 10:34:43;;;;;;;3.55;0.03;;;;;;;14.45;100.00;100714.09;5090408;28;20054;-66
2023/11/07 10:37:09;;;;;;;0.55;0.05;;;;;;;14.41;100.00;100710.97;5090884;28;20394;-67
2023/11/07 10:39:35;;;;;;;2.13;0.10;;;;;;;14.44;100.00;100701.97;5090206;28;20376;-66
2023/11/07 10:42:18;;;;;;;1.85;0.08;;;;;;;14.51;100.00;100705.56;5090296;28;20040;-67
2023/11/07 10:44:50;;;;;;;0.40;0.00;;;;;;;14.58;100.00;100698.69;5090413;28;20051;-67
2023/11/07 10:47:16;;;;;;;2.08;0.10;;;;;;;14.66;100.00;100703.09;5090119;28;20052;-66
2023/11/07 10:49:49;;;;;;;1.50;0.10;;;;;;;14.71;100.00;100704.25;5090045;28;20561;-66
2023/11/07 10:52:14;;;;;;;2.72;0.20;;;;;;;14.68;100.00;100699.31;5094101;28;20115;-65
2023/11/07 10:54:41;;;;;;;0.40;0.00;;;;;;;14.53;100.00;100701.81;5092073;28;20229;-66
2023/11/07 10:57:10;;;;;;;0.10;0.00;;;;;;;14.46;100.00;100689.53;5090727;28;20024;-66
2023/11/07 10:59:40;;;;;;;0.10;0.00;;;;;;;14.34;100.00;100694.22;5093465;28;20116;-66
2023/11/07 11:02:08;;;;;;;0.00;0.00;;;;;;;14.28;100.00;100693.06;5089499;28;20032;-66
2023/11/07 11:04:36;;;;;;;0.88;0.00;;;;;;;14.24;100.00;100690.94;5090478;28;20035;-66
2023/11/07 11:07:07;;;;;;;0.45;0.00;;;;;;;14.16;100.00;100689.16;5090002;28;20455;-65
2023/11/07 11:09:33;;;;;;;2.80;0.00;;;;;;;14.16;100.00;100683.91;5088811;28;20165;-65
2023/11/07 11:12:02;;;;;;;0.17;0.03;;;;;;;14.20;100.00;100687.81;5090968;28;20031;-65
2023/11/07 11:14:28;;;;;;;1.27;0.20;;;;;;;14.26;100.00;100679.31;5088060;28;20364;-65
2023/11/07 11:17:17;;;;;;;1.23;0.10;;;;;;;14.24;100.00;100665.56;5090363;28;20126;-65
2023/11/07 11:19:54;;;;;;;0.28;0.00;;;;;;;14.33;100.00;100658.50;5089005;28;20029;-66